Time;durP1;ratioP1;P1;durP2;ratioP2;P2;SDS_P1;SDS_P2;PMS_P1;PMS_P2;Temp;Humidity;BMP_temperature;BMP_pressure;BME280_temperature;BME280_humidity;BME280_pressure;Samples;Min_cycle;Max_cycle;Signal;HPM_P1;HPM_P2
2022/09/15 00:02:17;;;;;;;2.45;2.15;;;;;;;;;;5070514;28;20122;-60
2022/09/15 00:04:43;;;;;;;3.92;2.35;;;;;;;;;;5070418;28;20032;-60
2022/09/15 00:07:09;;;;;;;3.47;2.30;;;;;;;;;;5070601;28;20577;-60
2022/09/15 00:09:35;;;;;;;3.15;2.10;;;;;;;;;;5069766;28;20048;-59
2022/09/15 00:12:02;;;;;;;4.13;2.50;;;;;;;;;;5070226;28;20036;-60
2022/09/15 00:14:28;;;;;;;5.95;2.58;;;;;;;;;;5070828;28;20339;-60
2022/09/15 00:16:54;;;;;;;4.35;2.75;;;;;;;;;;5070261;28;20493;-60
2022/09/15 00:19:20;;;;;;;3.97;2.58;;;;;;;;;;5070372;28;20056;-60
2022/09/15 00:21:46;;;;;;;3.83;2.58;;;;;;;;;;5070640;28;20032;-60
2022/09/15 00:24:13;;;;;;;7.25;2.80;;;;;;;;;;5070146;28;20314;-60
2022/09/15 00:26:39;;;;;;;2.83;2.45;;;;;;;;;;5070577;28;20581;-60
2022/09/15 00:29:05;;;;;;;3.30;2.50;;;;;;;;;;5070313;28;20033;-60
2022/09/15 00:31:31;;;;;;;3.05;2.70;;;;;;;;;;5069994;28;20052;-60
2022/09/15 00:34:02;;;;;;;6.13;2.83;;;;;;;;;;5070670;28;20149;-60
2022/09/15 00:36:28;;;;;;;4.45;3.15;;;;;;;;;;5069028;28;20048;-60
2022/09/15 00:38:55;;;;;;;6.20;3.33;;;;;;;;;;5069746;28;20029;-60
2022/09/15 00:41:22;;;;;;;5.45;2.90;;;;;;;;;;5070529;28;20047;-60
2022/09/15 00:43:56;;;;;;;4.63;3.35;;;;;;;;;;5070517;28;20119;-60
2022/09/15 00:46:27;;;;;;;6.32;3.42;;;;;;;;;;5070021;28;20044;-60
2022/09/15 00:49:13;;;;;;;7.25;4.32;;;;;;;;;;5070306;28;20459;-60
2022/09/15 00:51:42;;;;;;;10.07;5.05;;;;;;;;;;5069219;28;20059;-60
2022/09/15 00:54:11;;;;;;;7.55;4.78;;;;;;;;;;5070051;28;20036;-60
2022/09/15 00:56:38;;;;;;;6.70;5.10;;;;;;;;;;5070308;28;20309;-60
2022/09/15 00:59:06;;;;;;;6.88;5.05;;;;;;;;;;5070137;28;20044;-60
2022/09/15 01:01:32;;;;;;;5.40;4.85;;;;;;;;;;5069931;28;20032;-60
2022/09/15 01:03:59;;;;;;;9.30;4.68;;;;;;;;;;5070337;28;20043;-60
2022/09/15 01:06:29;;;;;;;8.63;4.43;;;;;;;;;;5070152;28;20478;-60
2022/09/15 01:09:14;;;;;;;11.32;4.07;;;;;;;;;;5071325;28;20063;-60
2022/09/15 01:11:40;;;;;;;5.32;3.63;;;;;;;;;;5073785;28;20091;-60
2022/09/15 01:14:07;;;;;;;7.18;4.15;;;;;;;;;;5073677;28;20048;-60
2022/09/15 01:16:56;;;;;;;9.07;3.90;;;;;;;;;;5073431;28;20033;-60
2022/09/15 01:19:31;;;;;;;10.55;4.35;;;;;;;;;;5072102;28;20044;-60
2022/09/15 01:22:09;;;;;;;6.72;3.63;;;;;;;;;;5073367;28;20398;-60
2022/09/15 01:24:41;;;;;;;10.90;3.80;;;;;;;;;;5073744;28;20041;-60
2022/09/15 01:27:17;;;;;;;6.18;2.83;;;;;;;;;;5073538;28;20055;-60
2022/09/15 01:29:46;;;;;;;6.22;1.88;;;;;;;;;;5073137;28;20040;-60
2022/09/15 01:35:04;;;;;;;6.25;1.92;;;;;;;;;;5073259;28;20051;-60
2022/09/15 01:37:31;;;;;;;7.47;2.03;;;;;;;;;;5073055;28;20711;-60
2022/09/15 01:39:59;;;;;;;3.20;1.50;;;;;;;;;;5073581;28;20037;-59
2022/09/15 01:42:26;;;;;;;6.68;1.80;;;;;;;;;;5073539;28;20072;-60
2022/09/15 01:44:56;;;;;;;6.00;1.52;;;;;;;;;;5073073;28;20403;-60
2022/09/15 01:47:22;;;;;;;5.20;1.58;;;;;;;;;;5071961;28;20043;-60
2022/09/15 01:49:50;;;;;;;7.03;1.90;;;;;;;;;;5073303;28;20479;-60
2022/09/15 01:52:18;;;;;;;4.97;1.50;;;;;;;;;;5072902;28;20052;-60
2022/09/15 01:54:47;;;;;;;5.57;1.40;;;;;;;;;;5073243;28;20068;-60
2022/09/15 01:57:20;;;;;;;5.03;1.40;;;;;;;;;;5072770;28;20044;-60
2022/09/15 01:59:46;;;;;;;;;;;;;;;;;;5073308;28;20040;-60
2022/09/15 02:02:15;;;;;;;6.15;1.23;;;;;;;;;;5073189;28;20327;-60
2022/09/15 02:04:49;;;;;;;5.35;1.60;;;;;;;;;;5073103;28;20642;-60
2022/09/15 02:07:19;;;;;;;9.02;1.90;;;;;;;;;;5072516;28;20127;-60
2022/09/15 02:09:57;;;;;;;8.70;1.70;;;;;;;;;;5072447;28;20396;-60
2022/09/15 02:12:49;;;;;;;5.95;1.50;;;;;;;;;;5072586;28;20028;-60
2022/09/15 02:15:17;;;;;;;4.47;1.47;;;;;;;;;;5071853;28;20414;-60
2022/09/15 02:17:50;;;;;;;6.78;1.40;;;;;;;;;;5072795;28;20097;-59
2022/09/15 02:20:25;;;;;;;7.47;1.70;;;;;;;;;;5071990;28;20105;-60
2022/09/15 02:22:56;;;;;;;8.52;1.70;;;;;;;;;;5071117;28;20051;-60
2022/09/15 02:25:33;;;;;;;3.60;1.42;;;;;;;;;;5072249;28;20041;-60
2022/09/15 02:28:02;;;;;;;7.13;1.40;;;;;;;;;;5072328;28;20044;-60
2022/09/15 02:30:30;;;;;;;13.77;2.08;;;;;;;;;;5071551;28;20052;-60
2022/09/15 02:33:01;;;;;;;6.72;1.27;;;;;;;;;;5071840;28;20037;-59
2022/09/15 02:35:29;;;;;;;12.18;2.75;;;;;;;;;;5071912;28;20047;-59
2022/09/15 02:37:55;;;;;;;8.35;2.22;;;;;;;;;;5071398;28;20060;-60
2022/09/15 02:40:22;;;;;;;3.00;1.13;;;;;;;;;;5071586;28;20044;-60
2022/09/15 02:42:56;;;;;;;5.80;1.35;;;;;;;;;;5072438;28;20159;-60
2022/09/15 02:45:23;;;;;;;6.05;1.65;;;;;;;;;;5071638;28;20078;-60
2022/09/15 02:47:49;;;;;;;6.25;1.27;;;;;;;;;;5070555;28;20055;-60
2022/09/15 02:50:16;;;;;;;11.60;1.58;;;;;;;;;;5072044;28;20041;-60
2022/09/15 02:52:42;;;;;;;5.75;1.25;;;;;;;;;;5070191;28;20036;-60
2022/09/15 02:55:08;;;;;;;9.18;1.98;;;;;;;;;;5071941;28;20051;-60
2022/09/15 02:57:34;;;;;;;6.80;1.30;;;;;;;;;;5071765;28;20051;-60
2022/09/15 03:00:13;;;;;;;7.88;1.33;;;;;;;;;;5071532;28;20068;-60
2022/09/15 03:02:40;;;;;;;5.50;1.10;;;;;;;;;;5071791;28;20093;-59
2022/09/15 03:05:06;;;;;;;5.97;1.25;;;;;;;;;;5071773;28;20387;-60
2022/09/15 03:07:32;;;;;;;7.63;1.10;;;;;;;;;;5071293;28;20090;-60
2022/09/15 03:09:58;;;;;;;5.95;1.08;;;;;;;;;;5071325;28;20487;-60
2022/09/15 03:12:25;;;;;;;4.57;1.25;;;;;;;;;;5071221;28;20052;-60
2022/09/15 03:14:51;;;;;;;6.85;1.42;;;;;;;;;;5071341;28;20775;-59
2022/09/15 03:17:17;;;;;;;8.80;2.53;;;;;;;;;;5071568;28;20124;-60
2022/09/15 03:19:44;;;;;;;5.35;1.05;;;;;;;;;;5071677;28;20125;-59
2022/09/15 03:22:10;;;;;;;10.05;1.40;;;;;;;;;;5070809;28;20068;-60
2022/09/15 03:24:36;;;;;;;6.55;1.15;;;;;;;;;;5071464;28;20033;-60
2022/09/15 03:27:03;;;;;;;5.50;1.42;;;;;;;;;;5071246;28;20119;-60
2022/09/15 03:29:29;;;;;;;4.63;1.17;;;;;;;;;;5071003;28;20037;-60
2022/09/15 03:31:55;;;;;;;6.13;1.67;;;;;;;;;;5070202;28;20052;-60
2022/09/15 03:34:21;;;;;;;6.32;1.20;;;;;;;;;;5071264;28;20044;-59
2022/09/15 03:36:48;;;;;;;4.65;1.50;;;;;;;;;;5069548;28;20038;-60
2022/09/15 03:39:14;;;;;;;4.97;1.15;;;;;;;;;;5071222;28;20455;-60
2022/09/15 03:41:40;;;;;;;6.30;1.65;;;;;;;;;;5071261;28;20045;-60
2022/09/15 03:44:06;;;;;;;7.15;1.40;;;;;;;;;;5069442;28;20048;-60
2022/09/15 03:46:32;;;;;;;5.97;1.40;;;;;;;;;;5070829;28;20040;-60
2022/09/15 03:48:58;;;;;;;6.93;1.08;;;;;;;;;;5071088;28;20040;-60
2022/09/15 03:51:24;;;;;;;9.55;1.38;;;;;;;;;;5070590;28;20040;-59
2022/09/15 03:53:50;;;;;;;10.07;1.42;;;;;;;;;;5070921;28;20081;-60
2022/09/15 03:56:30;;;;;;;4.68;1.35;;;;;;;;;;5070823;28;20047;-60
2022/09/15 03:58:56;;;;;;;4.43;1.40;;;;;;;;;;5070438;28;20379;-59
2022/09/15 04:01:23;;;;;;;7.32;1.80;;;;;;;;;;5070926;28;20036;-58
2022/09/15 04:03:49;;;;;;;6.85;1.85;;;;;;;;;;5070572;28;20039;-59
2022/09/15 04:06:15;;;;;;;6.18;2.10;;;;;;;;;;5070400;28;20044;-60
2022/09/15 04:08:41;;;;;;;6.70;1.77;;;;;;;;;;5070527;28;20106;-60
2022/09/15 04:11:08;;;;;;;4.45;1.30;;;;;;;;;;5070779;28;20051;-59
2022/09/15 04:13:35;;;;;;;6.50;1.33;;;;;;;;;;5070349;28;20079;-60
2022/09/15 04:16:01;;;;;;;4.90;1.33;;;;;;;;;;5070784;28;20383;-60
2022/09/15 04:18:28;;;;;;;7.88;1.50;;;;;;;;;;5070311;28;20124;-59
2022/09/15 04:20:58;;;;;;;6.72;1.40;;;;;;;;;;5070335;28;20048;-59
2022/09/15 04:23:24;;;;;;;8.00;1.58;;;;;;;;;;5070335;28;20128;-60
2022/09/15 04:26:00;;;;;;;10.63;1.92;;;;;;;;;;5070499;28;20119;-60
2022/09/15 04:28:27;;;;;;;7.53;1.15;;;;;;;;;;5070122;28;20416;-60
2022/09/15 04:30:53;;;;;;;6.25;1.30;;;;;;;;;;5070113;28;20106;-60
2022/09/15 04:33:20;;;;;;;11.00;1.40;;;;;;;;;;5070458;28;20040;-60
2022/09/15 04:35:47;;;;;;;6.35;1.20;;;;;;;;;;5068896;28;20112;-60
2022/09/15 04:38:13;;;;;;;4.35;1.02;;;;;;;;;;5070224;28;20475;-60
2022/09/15 04:40:39;;;;;;;6.15;1.27;;;;;;;;;;5070159;28;20044;-60
2022/09/15 04:43:05;;;;;;;4.82;1.33;;;;;;;;;;5072209;28;20051;-60
2022/09/15 04:45:32;;;;;;;3.78;1.17;;;;;;;;;;5074218;28;20548;-60
2022/09/15 04:47:59;;;;;;;8.18;2.17;;;;;;;;;;5074421;28;20048;-60
2022/09/15 04:50:25;;;;;;;9.50;2.38;;;;;;;;;;5074071;28;20479;-60
2022/09/15 04:52:51;;;;;;;9.35;3.90;;;;;;;;;;5074284;28;20183;-60
2022/09/15 04:55:17;;;;;;;7.32;1.50;;;;;;;;;;5074361;28;20040;-59
2022/09/15 04:57:43;;;;;;;8.82;2.00;;;;;;;;;;5073715;28;20043;-60
2022/09/15 05:00:10;;;;;;;6.88;1.42;;;;;;;;;;5074179;28;20425;-59
2022/09/15 05:02:35;;;;;;;7.43;1.40;;;;;;;;;;5074078;28;20135;-59
2022/09/15 05:05:02;;;;;;;6.60;1.90;;;;;;;;;;5073794;28;20518;-60
2022/09/15 05:07:28;;;;;;;6.03;1.63;;;;;;;;;;5073821;28;20040;-60
2022/09/15 05:09:54;;;;;;;9.13;1.40;;;;;;;;;;5073604;28;20475;-60
2022/09/15 05:12:20;;;;;;;4.60;1.15;;;;;;;;;;5061931;28;20036;-60
2022/09/15 05:14:46;;;;;;;8.57;1.15;;;;;;;;;;5071851;28;20028;-60
2022/09/15 05:17:12;;;;;;;6.78;1.30;;;;;;;;;;5073661;28;20068;-60
2022/09/15 05:19:38;;;;;;;7.68;1.13;;;;;;;;;;5071913;28;20056;-60
2022/09/15 05:22:04;;;;;;;7.55;1.30;;;;;;;;;;5073419;28;20043;-59
2022/09/15 05:24:30;;;;;;;3.95;1.00;;;;;;;;;;5073312;28;20478;-59
2022/09/15 05:26:56;;;;;;;4.65;1.05;;;;;;;;;;5073045;28;20047;-59
2022/09/15 05:29:22;;;;;;;10.65;1.88;;;;;;;;;;5073668;28;20451;-60
2022/09/15 05:31:48;;;;;;;5.10;1.02;;;;;;;;;;5073212;28;20078;-60
2022/09/15 05:34:14;;;;;;;7.57;0.98;;;;;;;;;;5073037;28;20463;-60
2022/09/15 05:36:40;;;;;;;14.35;1.30;;;;;;;;;;5073351;28;20128;-60
2022/09/15 05:39:06;;;;;;;5.10;1.55;;;;;;;;;;5071872;28;20044;-60
2022/09/15 05:41:32;;;;;;;5.95;0.80;;;;;;;;;;5072575;28;20048;-60
2022/09/15 05:43:59;;;;;;;6.90;1.20;;;;;;;;;;5071576;28;20040;-60
2022/09/15 05:46:26;;;;;;;5.20;1.10;;;;;;;;;;5073295;28;20044;-60
2022/09/15 05:48:53;;;;;;;9.82;1.30;;;;;;;;;;5072535;28;20525;-60
2022/09/15 05:51:19;;;;;;;7.63;1.25;;;;;;;;;;5069592;28;20123;-60
2022/09/15 05:53:45;;;;;;;7.05;1.20;;;;;;;;;;5071632;28;20036;-61
2022/09/15 05:56:12;;;;;;;4.68;1.10;;;;;;;;;;5072096;28;20064;-60
2022/09/15 05:58:39;;;;;;;4.80;1.00;;;;;;;;;;5072036;28;20526;-61
2022/09/15 06:01:07;;;;;;;9.82;1.38;;;;;;;;;;5072764;28;20040;-60
2022/09/15 06:03:34;;;;;;;9.00;1.10;;;;;;;;;;5072301;28;20589;-60
2022/09/15 06:06:04;;;;;;;11.15;1.30;;;;;;;;;;5071789;28;20189;-60
2022/09/15 06:08:30;;;;;;;6.90;1.77;;;;;;;;;;5071663;28;20052;-60
2022/09/15 06:11:01;;;;;;;6.43;1.13;;;;;;;;;;5071604;28;20044;-60
2022/09/15 06:13:27;;;;;;;7.47;1.10;;;;;;;;;;5071701;28;20048;-60
2022/09/15 06:15:53;;;;;;;7.85;1.48;;;;;;;;;;5072418;28;20032;-60
2022/09/15 06:18:19;;;;;;;7.50;1.02;;;;;;;;;;5071012;28;20151;-60
2022/09/15 06:20:45;;;;;;;8.38;1.30;;;;;;;;;;5072301;28;20052;-60
2022/09/15 06:23:11;;;;;;;10.55;1.48;;;;;;;;;;5071583;28;20144;-60
2022/09/15 06:25:37;;;;;;;4.88;1.73;;;;;;;;;;5070839;28;20053;-59
2022/09/15 06:28:03;;;;;;;7.53;1.50;;;;;;;;;;5071800;28;20052;-60
2022/09/15 06:30:29;;;;;;;5.63;1.27;;;;;;;;;;5071981;28;20051;-60
2022/09/15 06:32:55;;;;;;;4.35;1.15;;;;;;;;;;5071179;28;20335;-60
2022/09/15 06:35:21;;;;;;;7.22;1.35;;;;;;;;;;5071943;28;20045;-60
2022/09/15 06:37:47;;;;;;;7.28;1.45;;;;;;;;;;5067504;28;20028;-60
2022/09/15 06:40:14;;;;;;;7.03;1.60;;;;;;;;;;5069775;28;20100;-60
2022/09/15 06:42:40;;;;;;;6.80;1.02;;;;;;;;;;5068676;28;20044;-60
2022/09/15 06:45:06;;;;;;;4.00;0.90;;;;;;;;;;5067429;28;20044;-60
2022/09/15 06:47:32;;;;;;;5.63;1.10;;;;;;;;;;5070477;28;20056;-60
2022/09/15 06:49:58;;;;;;;4.07;1.10;;;;;;;;;;5070060;28;20147;-61
2022/09/15 06:52:24;;;;;;;5.50;1.17;;;;;;;;;;5071338;28;20186;-60
2022/09/15 06:54:50;;;;;;;5.00;0.90;;;;;;;;;;5066612;28;20660;-61
2022/09/15 06:57:16;;;;;;;7.15;1.10;;;;;;;;;;5071012;28;20044;-60
2022/09/15 06:59:43;;;;;;;8.10;1.02;;;;;;;;;;5069467;28;20032;-60
2022/09/15 07:02:09;;;;;;;10.23;1.58;;;;;;;;;;5070237;28;20124;-60
2022/09/15 07:04:38;;;;;;;7.57;1.45;;;;;;;;;;5070491;28;20064;-61
2022/09/15 07:07:04;;;;;;;6.13;1.10;;;;;;;;;;5069256;28;20044;-61
2022/09/15 07:09:30;;;;;;;4.40;1.02;;;;;;;;;;5069134;28;20106;-60
2022/09/15 07:11:56;;;;;;;7.53;1.20;;;;;;;;;;5069970;28;20044;-60
2022/09/15 07:14:22;;;;;;;7.47;1.10;;;;;;;;;;5070559;28;20107;-61
2022/09/15 07:16:48;;;;;;;9.35;1.45;;;;;;;;;;5070169;28;20075;-61
2022/09/15 07:19:14;;;;;;;6.03;1.00;;;;;;;;;;5069183;28;20041;-60
2022/09/15 07:21:41;;;;;;;7.25;1.00;;;;;;;;;;5069455;28;20067;-60
2022/09/15 07:24:07;;;;;;;5.35;0.90;;;;;;;;;;5069948;28;20040;-60
2022/09/15 07:26:33;;;;;;;7.47;1.27;;;;;;;;;;5068912;28;20475;-60
2022/09/15 07:29:00;;;;;;;8.43;0.93;;;;;;;;;;5069640;28;20051;-60
2022/09/15 07:31:27;;;;;;;6.38;1.17;;;;;;;;;;5069415;28;20089;-60
2022/09/15 07:33:53;;;;;;;7.82;1.27;;;;;;;;;;5068733;28;20040;-60
2022/09/15 07:36:20;;;;;;;6.82;1.10;;;;;;;;;;5069077;28;20115;-60
2022/09/15 07:38:47;;;;;;;4.60;1.40;;;;;;;;;;5068908;28;20044;-60
2022/09/15 07:41:14;;;;;;;7.82;1.10;;;;;;;;;;5069072;28;20036;-61
2022/09/15 07:43:44;;;;;;;5.30;1.42;;;;;;;;;;5069223;28;20036;-60
2022/09/15 07:46:11;;;;;;;8.80;1.13;;;;;;;;;;5069276;28;20040;-60
2022/09/15 07:48:37;;;;;;;3.80;0.90;;;;;;;;;;5068191;28;20094;-60
2022/09/15 07:51:03;;;;;;;8.65;2.30;;;;;;;;;;5068928;28;20036;-61
2022/09/15 07:53:30;;;;;;;8.95;2.35;;;;;;;;;;5061166;28;20493;-60
2022/09/15 07:55:56;;;;;;;8.90;1.38;;;;;;;;;;5068400;28;20110;-60
2022/09/15 07:58:23;;;;;;;5.15;0.75;;;;;;;;;;5068372;28;20043;-60
2022/09/15 08:00:49;;;;;;;5.97;0.90;;;;;;;;;;5068961;28;20491;-60
2022/09/15 08:03:15;;;;;;;5.97;0.98;;;;;;;;;;5067341;28;20045;-59
2022/09/15 08:05:41;;;;;;;3.60;0.90;;;;;;;;;;5065482;28;20040;-62
2022/09/15 08:08:08;;;;;;;3.88;0.75;;;;;;;;;;5045773;28;20041;-63
2022/09/15 08:10:34;;;;;;;7.68;1.35;;;;;;;;;;5064229;28;20383;-62
2022/09/15 08:13:00;;;;;;;4.85;1.30;;;;;;;;;;5068000;28;20039;-62
2022/09/15 08:15:26;;;;;;;4.38;0.88;;;;;;;;;;5068371;28;20056;-62
2022/09/15 08:17:52;;;;;;;6.75;0.90;;;;;;;;;;5066954;28;20154;-63
2022/09/15 08:20:20;;;;;;;4.85;0.73;;;;;;;;;;5068863;28;20047;-62
2022/09/15 08:22:46;;;;;;;9.38;1.50;;;;;;;;;;5068912;28;20052;-62
2022/09/15 08:25:13;;;;;;;5.93;1.05;;;;;;;;;;5068648;28;20071;-62
2022/09/15 08:27:39;;;;;;;4.80;0.80;;;;;;;;;;5067562;28;20051;-62
2022/09/15 08:30:06;;;;;;;4.22;0.73;;;;;;;;;;5068559;28;20040;-62
2022/09/15 08:32:32;;;;;;;7.30;0.93;;;;;;;;;;5067042;28;20037;-62
2022/09/15 08:34:58;;;;;;;4.93;0.90;;;;;;;;;;5068876;28;20037;-62
2022/09/15 08:37:24;;;;;;;4.03;0.80;;;;;;;;;;5068201;28;20050;-62
2022/09/15 08:39:50;;;;;;;5.35;1.10;;;;;;;;;;5067519;28;20526;-63
2022/09/15 08:42:18;;;;;;;8.30;1.25;;;;;;;;;;5068461;28;20131;-62
2022/09/15 08:44:48;;;;;;;4.53;0.73;;;;;;;;;;5067406;28;20068;-62
2022/09/15 08:47:20;;;;;;;6.30;1.27;;;;;;;;;;5067693;28;20045;-62
2022/09/15 08:50:00;;;;;;;8.40;1.40;;;;;;;;;;5068446;28;20494;-62
2022/09/15 08:52:45;;;;;;;5.25;0.82;;;;;;;;;;5067583;28;20032;-62
2022/09/15 08:55:13;;;;;;;6.47;1.13;;;;;;;;;;5065915;28;20051;-62
2022/09/15 08:57:40;;;;;;;4.85;0.70;;;;;;;;;;5067142;28;20044;-62
2022/09/15 09:00:12;;;;;;;6.43;2.10;;;;;;;;;;5068633;28;20523;-62
2022/09/15 09:02:42;;;;;;;3.20;0.95;;;;;;;;;;5067221;28;20747;-62
2022/09/15 09:05:11;;;;;;;2.72;0.77;;;;;;;;;;5068325;28;20037;-61
2022/09/15 09:07:43;;;;;;;6.90;1.05;;;;;;;;;;5067508;28;20554;-62
2022/09/15 09:10:09;;;;;;;;;;;;;;;;;;5065602;28;20140;-62
2022/09/15 09:12:35;;;;;;;6.10;1.00;;;;;;;;;;5067504;28;20376;-62
2022/09/15 09:15:24;;;;;;;5.68;0.80;;;;;;;;;;5066896;28;20045;-62
2022/09/15 09:17:58;;;;;;;12.40;1.30;;;;;;;;;;5067522;28;20049;-61
2022/09/15 09:20:54;;;;;;;3.60;1.10;;;;;;;;;;5066947;28;20040;-62
2022/09/15 09:23:22;;;;;;;8.00;0.93;;;;;;;;;;5065823;28;20055;-62
2022/09/15 09:25:49;;;;;;;7.57;1.15;;;;;;;;;;5068454;28;20075;-62
2022/09/15 09:28:29;;;;;;;7.18;1.85;;;;;;;;;;5067579;28;20045;-62
2022/09/15 09:30:59;;;;;;;4.28;0.80;;;;;;;;;;5070682;28;20457;-62
2022/09/15 09:33:29;;;;;;;4.57;1.23;;;;;;;;;;5070373;28;20552;-62
2022/09/15 09:35:57;;;;;;;5.03;1.00;;;;;;;;;;5071574;28;20052;-62
2022/09/15 09:38:29;;;;;;;6.43;0.93;;;;;;;;;;5068739;28;20041;-62
2022/09/15 09:40:56;;;;;;;5.45;0.90;;;;;;;;;;5071301;28;20071;-61
2022/09/15 09:43:21;;;;;;;5.45;0.63;;;;;;;;;;5070858;28;20151;-62
2022/09/15 09:45:48;;;;;;;5.85;0.80;;;;;;;;;;5070968;28;20646;-62
2022/09/15 09:48:34;;;;;;;6.50;0.80;;;;;;;;;;5069079;28;20075;-62
2022/09/15 09:51:00;;;;;;;4.93;0.80;;;;;;;;;;5070610;28;20044;-61
2022/09/15 09:53:26;;;;;;;12.40;2.17;;;;;;;;;;5071308;28;20116;-61
2022/09/15 09:55:54;;;;;;;4.55;0.80;;;;;;;;;;5071669;28;20047;-62
2022/09/15 09:58:24;;;;;;;6.10;1.25;;;;;;;;;;5071448;28;20437;-61
2022/09/15 10:00:51;;;;;;;3.53;0.77;;;;;;;;;;5070857;28;20052;-62
2022/09/15 10:03:21;;;;;;;4.22;0.77;;;;;;;;;;5071077;28;20040;-61
2022/09/15 10:06:07;;;;;;;6.57;0.82;;;;;;;;;;5071803;28;20051;-61
2022/09/15 10:08:34;;;;;;;5.05;1.15;;;;;;;;;;5068343;28;20059;-61
2022/09/15 10:11:09;;;;;;;5.53;0.55;;;;;;;;;;5070824;28;20056;-62
2022/09/15 10:13:35;;;;;;;2.72;0.70;;;;;;;;;;5062451;28;20616;-62
2022/09/15 10:16:02;;;;;;;3.72;0.90;;;;;;;;;;5070457;28;20119;-62
2022/09/15 10:18:36;;;;;;;1.85;0.50;;;;;;;;;;5070009;28;20036;-61
2022/09/15 10:21:04;;;;;;;3.65;0.70;;;;;;;;;;5069659;28;20044;-62
2022/09/15 10:23:30;;;;;;;1.73;0.52;;;;;;;;;;5069600;28;20049;-62
2022/09/15 10:26:16;;;;;;;4.13;1.10;;;;;;;;;;5070462;28;20086;-61
2022/09/15 10:28:43;;;;;;;4.75;0.77;;;;;;;;;;5069535;28;20047;-62
2022/09/15 10:31:12;;;;;;;4.53;0.50;;;;;;;;;;5069754;28;20420;-61
2022/09/15 10:33:40;;;;;;;2.42;0.60;;;;;;;;;;5068810;28;20083;-62
2022/09/15 10:36:14;;;;;;;3.80;0.70;;;;;;;;;;5063053;28;20047;-62
2022/09/15 10:38:42;;;;;;;3.13;1.00;;;;;;;;;;5068998;28;20066;-62
2022/09/15 10:41:08;;;;;;;7.40;0.93;;;;;;;;;;5068751;28;20048;-62
2022/09/15 10:43:37;;;;;;;2.67;0.57;;;;;;;;;;5070312;28;20047;-62
2022/09/15 10:46:09;;;;;;;6.18;1.13;;;;;;;;;;5069417;28;20040;-61
2022/09/15 10:48:35;;;;;;;;;;;;;;;;;;5069509;28;20049;-61
2022/09/15 10:51:20;;;;;;;4.28;0.70;;;;;;;;;;5069654;28;20421;-61
2022/09/15 10:53:51;;;;;;;7.18;0.95;;;;;;;;;;5069545;28;20064;-61
2022/09/15 10:56:26;;;;;;;5.15;1.05;;;;;;;;;;5070006;28;20036;-61
2022/09/15 10:59:11;;;;;;;5.82;1.20;;;;;;;;;;5068306;28;20036;-61
2022/09/15 11:01:40;;;;;;;5.10;1.10;;;;;;;;;;5069160;28;20122;-62
2022/09/15 11:04:12;;;;;;;6.47;0.82;;;;;;;;;;5070149;28;20044;-62
2022/09/15 11:06:50;;;;;;;8.40;0.93;;;;;;;;;;5069669;28;20044;-62
2022/09/15 11:09:27;;;;;;;6.40;1.17;;;;;;;;;;5064132;28;20731;-62
2022/09/15 11:12:11;;;;;;;5.63;0.98;;;;;;;;;;5068841;28;20044;-62
2022/09/15 11:14:37;;;;;;;3.92;0.70;;;;;;;;;;5069276;28;20085;-62
2022/09/15 11:17:12;;;;;;;3.22;0.47;;;;;;;;;;5068807;28;20059;-62
2022/09/15 11:19:45;;;;;;;4.07;1.00;;;;;;;;;;5066860;28;20078;-61
2022/09/15 11:22:14;;;;;;;4.47;0.98;;;;;;;;;;5068549;28;20470;-61
2022/09/15 11:24:53;;;;;;;7.45;1.30;;;;;;;;;;5068242;28;20055;-62
2022/09/15 11:27:19;;;;;;;7.07;1.35;;;;;;;;;;5068963;28;20056;-62
2022/09/15 11:29:51;;;;;;;6.70;1.20;;;;;;;;;;5066813;28;20051;-62
2022/09/15 11:32:17;;;;;;;;;;;;;;;;;;5069682;28;20051;-62
2022/09/15 11:34:48;;;;;;;6.60;1.25;;;;;;;;;;5064914;28;19921;-62
2022/09/15 11:37:17;;;;;;;7.18;1.10;;;;;;;;;;5068213;28;20044;-62
2022/09/15 11:39:52;;;;;;;5.75;1.10;;;;;;;;;;5069047;28;20429;-62
2022/09/15 11:42:51;;;;;;;11.23;1.70;;;;;;;;;;5069015;28;20077;-62
2022/09/15 11:45:20;;;;;;;6.30;1.08;;;;;;;;;;5065885;28;20177;-61
2022/09/15 11:47:48;;;;;;;5.53;1.10;;;;;;;;;;5067565;28;20044;-62
2022/09/15 11:50:20;;;;;;;2.88;0.95;;;;;;;;;;5069428;28;20036;-62
2022/09/15 11:52:51;;;;;;;6.32;0.82;;;;;;;;;;5067575;28;20398;-62
2022/09/15 11:55:32;;;;;;;5.20;1.10;;;;;;;;;;5066813;28;20048;-62
2022/09/15 11:58:03;;;;;;;4.97;0.77;;;;;;;;;;5067538;28;20046;-62
2022/09/15 12:00:30;;;;;;;2.85;0.63;;;;;;;;;;5067570;28;20049;-62
2022/09/15 12:02:59;;;;;;;3.55;0.80;;;;;;;;;;5068685;28;20044;-61
2022/09/15 12:05:34;;;;;;;5.82;0.80;;;;;;;;;;5067122;28;20052;-61
2022/09/15 12:08:05;;;;;;;6.45;0.98;;;;;;;;;;5067090;28;20033;-61
2022/09/15 12:10:35;;;;;;;7.30;1.00;;;;;;;;;;5060032;28;20571;-62
2022/09/15 12:13:03;;;;;;;2.37;0.77;;;;;;;;;;5067477;28;20039;-62
2022/09/15 12:15:29;;;;;;;3.80;0.80;;;;;;;;;;5066866;28;20101;-62
2022/09/15 12:17:55;;;;;;;5.07;0.80;;;;;;;;;;5068191;28;20042;-62
2022/09/15 12:20:22;;;;;;;5.85;1.10;;;;;;;;;;5067071;28;20140;-61
2022/09/15 12:22:56;;;;;;;3.72;0.75;;;;;;;;;;5067804;28;20048;-61
2022/09/15 12:25:29;;;;;;;5.18;0.80;;;;;;;;;;5066755;28;20102;-62
2022/09/15 12:28:13;;;;;;;3.95;0.77;;;;;;;;;;5066670;28;20044;-61
2022/09/15 12:30:40;;;;;;;4.43;0.50;;;;;;;;;;5060342;28;20059;-62
2022/09/15 12:33:26;;;;;;;1.50;0.52;;;;;;;;;;5068400;28;20043;-61
2022/09/15 12:35:52;;;;;;;2.42;0.60;;;;;;;;;;5067469;28;20592;-62
2022/09/15 12:38:22;;;;;;;2.22;0.80;;;;;;;;;;5068268;28;20036;-62
2022/09/15 12:40:57;;;;;;;3.47;0.50;;;;;;;;;;5068117;28;20036;-62
2022/09/15 12:43:24;;;;;;;4.10;0.70;;;;;;;;;;5067809;28;20052;-61
2022/09/15 12:45:55;;;;;;;1.45;0.40;;;;;;;;;;5066859;28;20070;-61
2022/09/15 12:48:30;;;;;;;1.92;0.65;;;;;;;;;;5067926;28;20465;-61
2022/09/15 12:50:59;;;;;;;1.25;0.60;;;;;;;;;;5068178;28;20044;-61
2022/09/15 12:53:25;;;;;;;3.50;0.60;;;;;;;;;;5067741;28;20040;-62
2022/09/15 12:55:54;;;;;;;6.00;0.60;;;;;;;;;;5067935;28;20048;-61
2022/09/15 12:58:29;;;;;;;1.98;0.60;;;;;;;;;;5064713;28;20066;-61
2022/09/15 13:01:14;;;;;;;4.85;0.70;;;;;;;;;;5067813;28;20472;-61
2022/09/15 13:03:40;;;;;;;4.00;0.55;;;;;;;;;;5069545;28;20047;-60
2022/09/15 13:06:15;;;;;;;3.05;0.70;;;;;;;;;;5068681;28;20041;-61
2022/09/15 13:08:43;;;;;;;1.77;0.50;;;;;;;;;;5070874;28;20064;-61
2022/09/15 13:11:30;;;;;;;1.40;0.63;;;;;;;;;;5070957;28;20475;-61
2022/09/15 13:14:02;;;;;;;1.58;0.60;;;;;;;;;;5070525;28;20032;-61
2022/09/15 13:16:28;;;;;;;2.78;0.50;;;;;;;;;;5070255;28;20075;-61
2022/09/15 13:19:04;;;;;;;1.65;0.50;;;;;;;;;;5070925;28;20896;-59
2022/09/15 13:21:30;;;;;;;4.18;0.70;;;;;;;;;;5070675;28;20097;-61
2022/09/15 13:23:57;;;;;;;2.63;0.57;;;;;;;;;;5071435;28;20119;-60
2022/09/15 13:26:24;;;;;;;3.90;0.60;;;;;;;;;;5070784;28;20040;-61
2022/09/15 13:28:51;;;;;;;4.10;0.75;;;;;;;;;;5070292;28;20036;-61
2022/09/15 13:31:23;;;;;;;2.75;1.00;;;;;;;;;;5071868;28;20044;-62
2022/09/15 13:34:08;;;;;;;6.15;1.10;;;;;;;;;;5071998;28;20133;-62
2022/09/15 13:36:40;;;;;;;2.42;0.70;;;;;;;;;;5070931;28;20041;-62
2022/09/15 13:39:06;;;;;;;;;;;;;;;;;;5071522;28;20537;-63
2022/09/15 13:41:32;;;;;;;2.35;0.60;;;;;;;;;;5071690;28;19916;-61
2022/09/15 13:44:11;;;;;;;8.32;1.35;;;;;;;;;;5072180;28;20659;-62
2022/09/15 13:46:37;;;;;;;4.40;1.15;;;;;;;;;;5070458;28;20040;-61
2022/09/15 13:49:22;;;;;;;3.28;0.80;;;;;;;;;;5071160;28;20079;-61
2022/09/15 13:51:59;;;;;;;4.15;0.60;;;;;;;;;;5071944;28;20044;-61
2022/09/15 13:54:25;;;;;;;3.55;0.88;;;;;;;;;;5069960;28;20041;-61
2022/09/15 13:56:52;;;;;;;4.15;0.80;;;;;;;;;;5070992;28;20082;-61
2022/09/15 13:59:23;;;;;;;5.53;0.70;;;;;;;;;;5070394;28;20055;-61
2022/09/15 14:01:49;;;;;;;3.70;0.68;;;;;;;;;;5070494;28;20119;-61
2022/09/15 14:04:18;;;;;;;3.97;1.05;;;;;;;;;;5071479;28;20554;-61
2022/09/15 14:06:45;;;;;;;1.80;0.57;;;;;;;;;;5070957;28;20119;-62
2022/09/15 14:09:24;;;;;;;4.05;0.57;;;;;;;;;;5069947;28;20073;-62
2022/09/15 14:11:51;;;;;;;6.35;0.77;;;;;;;;;;5068211;28;20574;-62
2022/09/15 14:14:26;;;;;;;4.95;0.60;;;;;;;;;;5070479;28;20095;-62
2022/09/15 14:16:53;;;;;;;2.90;0.65;;;;;;;;;;5070836;28;20051;-62
2022/09/15 14:19:40;;;;;;;4.00;0.80;;;;;;;;;;5070489;28;20533;-61
2022/09/15 14:22:15;;;;;;;6.18;0.80;;;;;;;;;;5071146;28;20050;-61
2022/09/15 14:24:41;;;;;;;5.85;0.88;;;;;;;;;;5052606;28;20136;-61
2022/09/15 14:27:09;;;;;;;9.10;1.05;;;;;;;;;;5068881;28;20040;-62
2022/09/15 14:29:39;;;;;;;5.07;0.68;;;;;;;;;;5070112;28;20056;-61
2022/09/15 14:32:05;;;;;;;6.13;0.80;;;;;;;;;;5069567;28;20459;-61
2022/09/15 14:34:32;;;;;;;5.10;0.90;;;;;;;;;;5069251;28;20871;-60
2022/09/15 14:37:03;;;;;;;5.00;0.57;;;;;;;;;;5068990;28;20789;-61
2022/09/15 14:39:29;;;;;;;3.55;0.77;;;;;;;;;;5071306;28;20486;-61
2022/09/15 14:41:55;;;;;;;4.18;1.25;;;;;;;;;;5070951;28;20044;-61
2022/09/15 14:44:28;;;;;;;4.47;0.90;;;;;;;;;;5071728;28;20478;-61
2022/09/15 14:46:53;;;;;;;;;;;;;;;;;;5071371;28;20045;-61
2022/09/15 14:49:20;;;;;;;3.45;0.82;;;;;;;;;;5070312;28;19947;-61
2022/09/15 14:51:48;;;;;;;2.75;0.50;;;;;;;;;;5071397;28;20094;-61
2022/09/15 14:54:36;;;;;;;3.08;0.52;;;;;;;;;;5070266;28;20086;-62
2022/09/15 14:57:02;;;;;;;3.13;0.60;;;;;;;;;;5071147;28;20383;-61
2022/09/15 14:59:38;;;;;;;3.00;0.70;;;;;;;;;;5070301;28;20344;-61